createdAt,value
2023-05-24T00:01:25.694Z,67.69
2023-05-24T00:03:53.847Z,66.23
2023-05-24T00:06:21.320Z,65.62
2023-05-24T00:08:48.748Z,64.24
2023-05-24T00:11:16.424Z,65.23
2023-05-24T00:13:43.809Z,64.56
2023-05-24T00:16:11.630Z,64.20
2023-05-24T00:18:41.088Z,64.31
2023-05-24T00:21:08.598Z,64.22
2023-05-24T00:23:37.129Z,64.69
2023-05-24T00:26:05.345Z,65.04
2023-05-24T00:28:32.770Z,65.04
2023-05-24T00:31:00.224Z,65.05
2023-05-24T00:33:29.650Z,65.82
2023-05-24T00:35:57.117Z,65.34
2023-05-24T00:38:27.681Z,65.45
2023-05-24T00:40:59.799Z,65.53
2023-05-24T00:43:27.602Z,65.89
2023-05-24T00:46:32.146Z,66.51
2023-05-24T00:49:00.582Z,65.28
2023-05-24T00:51:28.372Z,65.41
2023-05-24T00:53:56.350Z,65.86
2023-05-24T00:56:23.791Z,66.41
2023-05-24T00:58:54.830Z,66.12
2023-05-24T01:01:25.869Z,68.12
2023-05-24T01:03:54.477Z,68.92
2023-05-24T01:06:22.247Z,70.45
2023-05-24T01:09:28.410Z,70.39
2023-05-24T01:12:11.752Z,68.83
2023-05-24T01:14:48.629Z,70.81
2023-05-24T01:17:21.404Z,70.02
2023-05-24T01:19:54.815Z,67.76
2023-05-24T01:23:00.817Z,68.80
2023-05-24T01:25:41.831Z,69.45
2023-05-24T01:28:09.593Z,70.54
2023-05-24T01:30:36.982Z,71.55
2023-05-24T01:33:04.503Z,68.24
2023-05-24T01:35:39.791Z,67.76
2023-05-24T01:38:07.412Z,69.63
2023-05-24T01:40:35.178Z,69.97
2023-05-24T01:43:17.782Z,69.39
2023-05-24T01:46:11.084Z,69.01
2023-05-24T01:48:54.801Z,70.32
2023-05-24T01:51:23.966Z,70.04
2023-05-24T01:53:51.439Z,69.95
2023-05-24T01:56:19.493Z,69.90
2023-05-24T01:58:47.414Z,70.25
2023-05-24T02:01:14.816Z,69.80
2023-05-24T02:03:42.550Z,69.26
2023-05-24T02:06:10.766Z,68.85
2023-05-24T02:08:40.448Z,66.50
2023-05-24T02:11:08.160Z,68.95
2023-05-24T02:13:35.594Z,68.80
2023-05-24T02:16:05.147Z,68.84
2023-05-24T02:18:34.750Z,70.72
2023-05-24T02:21:02.650Z,69.98
2023-05-24T02:23:30.044Z,71.94
2023-05-24T02:26:00.043Z,72.13
2023-05-24T02:28:28.340Z,70.61
2023-05-24T02:30:55.747Z,70.20
2023-05-24T02:33:25.651Z,69.87
2023-05-24T02:35:53.126Z,71.44
2023-05-24T02:38:20.531Z,70.92
2023-05-24T02:40:48.185Z,70.83
2023-05-24T02:43:15.634Z,71.49
2023-05-24T02:45:43.048Z,75.09
2023-05-24T02:48:10.798Z,71.31
2023-05-24T02:50:38.204Z,71.45
2023-05-24T02:53:05.625Z,71.79
2023-05-24T02:55:33.712Z,71.92
2023-05-24T02:58:01.244Z,69.94
2023-05-24T03:00:30.196Z,70.07
2023-05-24T03:03:00.887Z,71.46
2023-05-24T03:05:28.380Z,68.98
2023-05-24T03:07:56.728Z,68.88
2023-05-24T03:10:24.420Z,68.29
2023-05-24T03:12:51.848Z,69.89
2023-05-24T03:15:19.321Z,69.86
2023-05-24T03:17:47.323Z,69.78
2023-05-24T03:20:16.003Z,70.08
2023-05-24T03:22:43.676Z,68.25
2023-05-24T03:25:11.361Z,66.98
2023-05-24T03:27:38.949Z,67.57
2023-05-24T03:30:07.203Z,69.00
2023-05-24T03:32:35.866Z,68.52
2023-05-24T03:35:03.283Z,69.40
2023-05-24T03:37:30.726Z,70.37
2023-05-24T03:39:58.351Z,70.82
2023-05-24T03:42:26.552Z,69.86
2023-05-24T03:44:54.154Z,70.80
2023-05-24T03:47:21.818Z,69.68
2023-05-24T03:49:49.232Z,71.39
2023-05-24T03:52:16.681Z,71.58
2023-05-24T03:54:45.859Z,71.44
2023-05-24T03:57:13.339Z,70.54
2023-05-24T03:59:41.454Z,69.36
2023-05-24T04:02:09.255Z,70.74
2023-05-24T04:04:40.010Z,70.37
2023-05-24T04:07:08.024Z,70.11
2023-05-24T04:09:35.583Z,69.34
2023-05-24T04:12:03.573Z,70.52
2023-05-24T04:14:31.035Z,68.18
2023-05-24T04:16:58.763Z,69.75
2023-05-24T04:19:26.562Z,68.97
2023-05-24T04:21:54.099Z,71.52
2023-05-24T04:24:22.470Z,70.55
2023-05-24T04:26:50.374Z,69.35
2023-05-24T04:29:18.910Z,73.45
2023-05-24T04:31:49.045Z,71.56
2023-05-24T04:34:16.941Z,73.00
2023-05-24T04:36:44.393Z,75.66
2023-05-24T04:39:11.854Z,76.34
2023-05-24T04:41:39.505Z,76.73
2023-05-24T04:44:07.542Z,74.17
2023-05-24T04:46:36.252Z,79.01
2023-05-24T04:49:05.677Z,79.45
2023-05-24T04:51:33.211Z,76.94
2023-05-24T04:54:01.564Z,75.79
2023-05-24T04:56:29.229Z,78.20
2023-05-24T04:58:56.634Z,78.90
2023-05-24T05:01:24.016Z,76.09
2023-05-24T05:03:51.675Z,78.77
2023-05-24T05:06:19.133Z,75.04
2023-05-24T05:08:47.474Z,75.49
2023-05-24T05:11:15.230Z,75.15
2023-05-24T05:13:42.668Z,76.60
2023-05-24T05:16:10.065Z,75.30
2023-05-24T05:18:37.782Z,76.44
2023-05-24T05:21:05.180Z,75.36
2023-05-24T05:23:32.680Z,72.86
2023-05-24T05:26:00.375Z,74.13
2023-05-24T05:28:27.729Z,72.61
2023-05-24T05:30:56.828Z,71.83
2023-05-24T05:33:24.651Z,75.36
2023-05-24T05:35:54.769Z,73.39
2023-05-24T05:38:22.495Z,73.68
2023-05-24T05:40:51.177Z,72.41
2023-05-24T05:43:18.622Z,73.31
2023-05-24T05:45:46.213Z,71.30
2023-05-24T05:48:13.919Z,68.57
2023-05-24T05:50:41.614Z,66.75
2023-05-24T05:53:09.153Z,67.75
2023-05-24T05:55:36.843Z,65.97
2023-05-24T05:58:04.252Z,67.52
2023-05-24T06:00:31.677Z,66.39
2023-05-24T06:02:59.373Z,64.36
2023-05-24T06:05:26.910Z,63.07
2023-05-24T06:07:57.174Z,62.63
2023-05-24T06:10:25.041Z,60.39
2023-05-24T06:12:52.567Z,59.54
2023-05-24T06:15:22.840Z,59.85
2023-05-24T06:17:51.847Z,58.02
2023-05-24T06:20:19.573Z,57.27
2023-05-24T06:22:49.433Z,59.15
2023-05-24T06:25:19.698Z,56.08
2023-05-24T06:27:47.215Z,51.97
2023-05-24T06:30:14.733Z,53.56
2023-05-24T06:32:42.526Z,51.45
2023-05-24T06:35:10.202Z,50.23
2023-05-24T06:37:38.656Z,48.09
2023-05-24T06:40:09.002Z,47.89
2023-05-24T06:42:37.053Z,43.97
2023-05-24T06:45:04.765Z,44.02
2023-05-24T06:47:32.827Z,47.94
2023-05-24T06:50:01.090Z,51.29
2023-05-24T06:52:28.564Z,48.76
2023-05-24T06:54:56.478Z,45.12
2023-05-24T06:57:24.568Z,46.48
2023-05-24T06:59:52.059Z,46.97
2023-05-24T07:02:24.108Z,45.06
2023-05-24T07:04:51.920Z,43.99
2023-05-24T07:07:20.665Z,43.90
2023-05-24T07:09:48.336Z,43.60
2023-05-24T07:12:15.837Z,47.39
2023-05-24T07:14:43.516Z,45.16
2023-05-24T07:17:11.133Z,49.12
2023-05-24T07:19:38.661Z,50.69
2023-05-24T07:22:06.489Z,53.22
2023-05-24T07:24:34.065Z,54.82
2023-05-24T07:27:01.776Z,54.05
2023-05-24T07:29:29.641Z,47.92
2023-05-24T07:31:58.031Z,47.29
2023-05-24T07:34:27.693Z,45.24
2023-05-24T07:36:55.644Z,46.33
2023-05-24T07:39:23.283Z,44.26
2023-05-24T07:41:51.003Z,42.84
2023-05-24T07:44:19.323Z,42.58
2023-05-24T07:46:46.812Z,45.18
2023-05-24T07:49:14.235Z,41.70
2023-05-24T07:51:41.928Z,42.50
2023-05-24T07:54:09.311Z,41.55
2023-05-24T07:56:37.775Z,42.92
2023-05-24T07:59:05.484Z,40.71
2023-05-24T08:01:34.409Z,40.84
2023-05-24T08:04:04.084Z,39.96
2023-05-24T08:06:32.841Z,38.84
2023-05-24T08:09:00.368Z,40.13
2023-05-24T08:11:28.059Z,40.00
2023-05-24T08:13:55.466Z,40.26
2023-05-24T08:16:22.922Z,40.84
2023-05-24T08:18:52.472Z,40.88
2023-05-24T08:21:21.589Z,37.41
2023-05-24T08:23:49.006Z,36.39
2023-05-24T08:26:19.173Z,38.34
2023-05-24T08:28:47.262Z,37.00
2023-05-24T08:31:14.758Z,36.74
2023-05-24T08:33:42.990Z,36.14
2023-05-24T08:36:10.835Z,36.01
2023-05-24T08:38:38.300Z,33.98
2023-05-24T08:41:07.266Z,33.57
2023-05-24T08:43:35.435Z,34.95
2023-05-24T08:46:03.783Z,36.69
2023-05-24T08:48:31.733Z,35.81
2023-05-24T08:50:59.460Z,35.32
2023-05-24T08:53:26.966Z,36.26
2023-05-24T08:55:55.837Z,34.98
2023-05-24T08:58:23.400Z,33.95
2023-05-24T09:00:51.026Z,34.88
2023-05-24T09:03:18.876Z,32.74
2023-05-24T09:05:46.805Z,34.52
2023-05-24T09:08:18.344Z,35.79
2023-05-24T09:10:54.989Z,34.22
2023-05-24T09:13:23.670Z,37.82
2023-05-24T09:15:51.588Z,37.19
2023-05-24T09:18:19.120Z,36.35
2023-05-24T09:20:46.845Z,36.91
2023-05-24T09:23:16.118Z,37.65
2023-05-24T09:25:44.752Z,37.93
2023-05-24T09:28:16.490Z,38.55
2023-05-24T09:30:44.981Z,38.92
2023-05-24T09:33:13.418Z,35.42
2023-05-24T09:35:44.806Z,37.75
2023-05-24T09:38:18.948Z,37.43
2023-05-24T09:40:46.924Z,36.28
2023-05-24T09:43:14.683Z,37.33
2023-05-24T09:45:43.016Z,36.04
2023-05-24T09:48:11.585Z,34.60
2023-05-24T09:50:39.504Z,33.65
2023-05-24T09:53:07.598Z,34.75
2023-05-24T09:55:38.025Z,36.53
2023-05-24T09:58:08.491Z,33.64
2023-05-24T10:00:40.084Z,36.80
2023-05-24T10:03:10.835Z,35.70
2023-05-24T10:05:41.354Z,33.23
2023-05-24T10:08:12.031Z,34.88
2023-05-24T10:10:39.515Z,32.86
2023-05-24T10:13:07.651Z,32.30
2023-05-24T10:15:35.330Z,35.40
2023-05-24T10:18:09.809Z,34.07
2023-05-24T10:20:41.848Z,31.60
2023-05-24T10:23:10.234Z,30.85
2023-05-24T10:25:39.683Z,32.17
2023-05-24T10:28:12.835Z,30.53
2023-05-24T10:30:55.017Z,31.04
2023-05-24T10:33:22.945Z,29.83
2023-05-24T10:35:50.606Z,32.60
2023-05-24T10:38:17.983Z,30.85
2023-05-24T10:40:45.724Z,29.95
2023-05-24T10:43:13.382Z,31.81
2023-05-24T10:45:41.038Z,35.43
2023-05-24T10:48:24.911Z,34.64
2023-05-24T10:50:52.294Z,36.73
2023-05-24T10:53:22.479Z,39.26
2023-05-24T10:56:00.198Z,41.09
2023-05-24T10:58:37.406Z,41.56
2023-05-24T11:01:04.804Z,42.94
2023-05-24T11:03:35.718Z,43.80
2023-05-24T11:06:03.229Z,45.10
2023-05-24T11:08:31.996Z,45.57
2023-05-24T11:11:25.680Z,45.41
2023-05-24T11:13:58.656Z,45.27
2023-05-24T11:16:43.680Z,45.28
2023-05-24T11:19:23.051Z,44.89
2023-05-24T11:21:52.542Z,45.18
2023-05-24T11:24:22.005Z,46.06
2023-05-24T11:26:50.023Z,43.78
2023-05-24T11:29:19.138Z,44.22
2023-05-24T11:31:53.156Z,43.80
2023-05-24T11:34:21.214Z,45.03
2023-05-24T11:36:48.845Z,43.49
2023-05-24T11:39:16.662Z,45.66
2023-05-24T11:41:44.524Z,45.72
2023-05-24T11:44:12.398Z,45.32
2023-05-24T11:46:39.964Z,45.23
2023-05-24T11:49:07.695Z,45.24
2023-05-24T11:51:35.993Z,44.34
2023-05-24T11:54:03.419Z,44.80
2023-05-24T11:56:33.624Z,44.20
2023-05-24T11:59:10.220Z,44.89
2023-05-24T12:01:38.174Z,44.09
2023-05-24T12:04:07.461Z,44.22
2023-05-24T12:06:39.505Z,44.11
2023-05-24T12:09:13.207Z,43.50
2023-05-24T12:11:48.343Z,44.78
2023-05-24T12:14:19.685Z,44.66
2023-05-24T12:16:47.428Z,43.82
2023-05-24T12:19:31.502Z,41.54
2023-05-24T12:22:05.010Z,41.65
2023-05-24T12:24:32.717Z,43.16
2023-05-24T12:27:06.801Z,44.22
2023-05-24T12:29:35.506Z,44.06
2023-05-24T12:32:03.081Z,43.53
2023-05-24T12:34:30.609Z,42.13
2023-05-24T12:36:58.463Z,42.60
2023-05-24T12:39:31.879Z,43.04
2023-05-24T12:42:01.955Z,41.72
2023-05-24T12:44:36.852Z,42.37
2023-05-24T12:47:06.935Z,42.64
2023-05-24T12:49:34.660Z,42.99
2023-05-24T12:52:02.181Z,42.90
2023-05-24T12:54:30.022Z,41.96
2023-05-24T12:56:59.684Z,42.31
2023-05-24T12:59:28.319Z,41.83
2023-05-24T13:01:56.399Z,41.31
2023-05-24T13:04:24.502Z,42.08
2023-05-24T13:06:51.957Z,41.30
2023-05-24T13:09:21.725Z,42.33
2023-05-24T13:11:49.564Z,42.25
2023-05-24T13:14:18.201Z,41.68
2023-05-24T13:16:46.065Z,41.65
2023-05-24T13:19:13.668Z,42.40
2023-05-24T13:21:41.267Z,42.38
2023-05-24T13:24:09.236Z,42.37
2023-05-24T13:26:38.075Z,42.79
2023-05-24T13:31:41.122Z,42.61
2023-05-24T13:34:10.703Z,42.73
2023-05-24T13:36:38.566Z,43.20
2023-05-24T13:39:15.707Z,43.63
2023-05-24T13:41:44.753Z,44.11
2023-05-24T13:44:13.300Z,43.19
2023-05-24T13:46:40.971Z,43.26
2023-05-24T13:49:09.402Z,43.29
2023-05-24T13:51:37.014Z,42.66
2023-05-24T13:54:06.991Z,41.87
2023-05-24T13:56:35.008Z,41.96
2023-05-24T13:59:03.398Z,42.27
2023-05-24T14:01:31.332Z,42.45
2023-05-24T14:04:02.510Z,43.33
2023-05-24T14:06:30.888Z,43.20
2023-05-24T14:08:58.709Z,43.00
2023-05-24T14:11:27.697Z,42.94
2023-05-24T14:14:43.651Z,43.35
2023-05-24T14:16:43.298Z,43.50
2023-05-24T14:19:10.958Z,43.76
2023-05-24T14:21:38.368Z,43.87
2023-05-24T14:24:06.034Z,42.68
2023-05-24T14:26:33.413Z,43.04
2023-05-24T14:29:01.651Z,43.38
2023-05-24T14:31:29.426Z,42.76
2023-05-24T14:33:56.962Z,43.66
2023-05-24T14:36:24.558Z,44.64
2023-05-24T14:38:52.312Z,44.26
2023-05-24T14:41:19.738Z,43.39
2023-05-24T14:43:47.194Z,44.49
2023-05-24T14:46:14.927Z,45.37
2023-05-24T14:48:42.372Z,44.41
2023-05-24T14:51:09.803Z,44.93
2023-05-24T14:53:37.488Z,44.71
2023-05-24T14:56:06.350Z,46.73
2023-05-24T14:58:33.779Z,45.99
2023-05-24T15:01:02.083Z,45.96
2023-05-24T15:03:29.694Z,45.66
2023-05-24T15:05:57.424Z,45.77
2023-05-24T15:08:25.121Z,45.48
2023-05-24T15:10:52.573Z,45.54
2023-05-24T15:13:20.330Z,44.87
2023-05-24T15:15:48.442Z,45.35
2023-05-24T15:18:15.850Z,46.04
2023-05-24T15:20:43.635Z,45.19
2023-05-24T15:23:11.627Z,45.56
2023-05-24T15:25:39.004Z,45.12
2023-05-24T15:28:06.551Z,44.67
2023-05-24T15:30:34.242Z,44.13
2023-05-24T15:33:01.661Z,44.33
2023-05-24T15:35:29.070Z,44.28
2023-05-24T15:37:56.694Z,43.46
2023-05-24T15:40:24.818Z,44.90
2023-05-24T15:42:52.940Z,44.64
2023-05-24T15:45:21.244Z,43.97
2023-05-24T15:47:48.771Z,45.15
2023-05-24T15:50:16.557Z,45.36
2023-05-24T15:52:44.228Z,44.20
2023-05-24T15:55:11.973Z,45.15
2023-05-24T15:57:39.403Z,44.51
2023-05-24T16:00:07.535Z,45.65
2023-05-24T16:02:39.579Z,45.97
2023-05-24T16:05:07.548Z,45.06
2023-05-24T16:07:34.941Z,43.88
2023-05-24T16:10:02.358Z,45.64
2023-05-24T16:12:30.587Z,45.58
2023-05-24T16:14:59.575Z,44.63
2023-05-24T16:17:27.063Z,45.03
2023-05-24T16:19:54.922Z,44.50
2023-05-24T16:22:22.487Z,44.81
2023-05-24T16:24:49.889Z,45.17
2023-05-24T16:27:17.588Z,46.95
2023-05-24T16:29:46.835Z,46.61
2023-05-24T16:32:14.383Z,45.51
2023-05-24T16:34:56.208Z,47.04
2023-05-24T16:37:24.360Z,46.64
2023-05-24T16:39:52.019Z,46.46
2023-05-24T16:42:19.558Z,47.32
2023-05-24T16:44:47.070Z,47.00
2023-05-24T16:47:14.806Z,47.87
2023-05-24T16:49:42.207Z,48.55
2023-05-24T16:52:09.627Z,48.08
2023-05-24T16:54:37.305Z,47.96
2023-05-24T16:57:04.696Z,48.38
2023-05-24T16:59:32.172Z,48.29
2023-05-24T17:01:59.888Z,48.25
2023-05-24T17:04:27.324Z,46.74
2023-05-24T17:06:54.708Z,46.72
2023-05-24T17:09:22.383Z,46.84
2023-05-24T17:11:51.021Z,47.77
2023-05-24T17:14:18.575Z,48.91
2023-05-24T17:16:46.321Z,48.60
2023-05-24T17:19:14.050Z,49.20
2023-05-24T17:21:42.104Z,48.40
2023-05-24T17:24:09.768Z,48.12
2023-05-24T17:26:39.008Z,48.72
2023-05-24T17:29:06.565Z,50.08
2023-05-24T17:31:34.289Z,50.86
2023-05-24T17:34:02.086Z,51.02
2023-05-24T17:36:33.328Z,51.79
2023-05-24T17:39:00.981Z,51.51
2023-05-24T17:41:28.363Z,50.80
2023-05-24T17:43:55.833Z,50.44
2023-05-24T17:46:23.659Z,51.21
2023-05-24T17:48:51.945Z,51.26
2023-05-24T17:51:19.635Z,52.24
2023-05-24T17:53:47.409Z,52.36
2023-05-24T17:56:14.979Z,53.11
2023-05-24T17:58:42.461Z,53.34
2023-05-24T18:01:11.466Z,53.74
2023-05-24T18:03:40.720Z,54.56
2023-05-24T18:06:08.553Z,53.73
2023-05-24T18:08:38.183Z,54.64
2023-05-24T18:11:09.418Z,54.48
2023-05-24T18:13:41.696Z,54.98
2023-05-24T18:16:10.300Z,58.74
2023-05-24T18:18:37.871Z,56.52
2023-05-24T18:21:05.553Z,57.49
2023-05-24T18:23:37.307Z,57.22
2023-05-24T18:26:08.410Z,57.33
2023-05-24T18:28:37.432Z,57.06
2023-05-24T18:31:08.298Z,57.51
2023-05-24T18:33:36.780Z,58.17
2023-05-24T18:36:05.451Z,58.45
2023-05-24T18:38:33.802Z,58.05
2023-05-24T18:41:04.166Z,58.64
2023-05-24T18:43:33.238Z,58.29
2023-05-24T18:46:01.275Z,58.21
2023-05-24T18:48:28.651Z,59.12
2023-05-24T18:50:56.254Z,57.83
2023-05-24T18:53:23.987Z,57.15
2023-05-24T18:55:51.486Z,57.86
2023-05-24T18:58:18.881Z,57.61
2023-05-24T19:00:46.557Z,58.75
2023-05-24T19:03:14.027Z,59.76
2023-05-24T19:05:43.812Z,60.99
2023-05-24T19:08:11.874Z,58.81
2023-05-24T19:10:39.283Z,59.37
2023-05-24T19:13:06.753Z,58.81
2023-05-24T19:15:35.272Z,62.46
2023-05-24T19:18:03.038Z,59.27
2023-05-24T19:20:30.522Z,58.73
2023-05-24T19:22:58.674Z,58.43
2023-05-24T19:25:26.351Z,60.11
2023-05-24T19:28:00.165Z,59.88
2023-05-24T19:30:28.279Z,59.07
2023-05-24T19:32:55.786Z,59.24
2023-05-24T19:35:23.503Z,59.91
2023-05-24T19:37:52.196Z,58.81
2023-05-24T19:40:20.759Z,60.09
2023-05-24T19:42:48.143Z,58.89
2023-05-24T19:45:16.409Z,61.11
2023-05-24T19:47:45.242Z,59.87
2023-05-24T19:50:12.753Z,62.71
2023-05-24T19:52:40.444Z,61.98
2023-05-24T19:55:08.287Z,61.10
2023-05-24T19:57:35.775Z,62.29
2023-05-24T20:00:04.444Z,61.78
2023-05-24T20:02:38.579Z,61.15
2023-05-24T20:05:06.976Z,61.52
2023-05-24T20:07:34.389Z,61.83
2023-05-24T20:10:01.906Z,60.88
2023-05-24T20:12:30.800Z,60.34
2023-05-24T20:14:58.220Z,62.73
2023-05-24T20:17:25.624Z,62.73
2023-05-24T20:19:53.376Z,61.48
2023-05-24T20:22:21.011Z,60.60
2023-05-24T20:24:48.438Z,59.74
2023-05-24T20:27:16.098Z,60.93
2023-05-24T20:29:43.497Z,60.53
2023-05-24T20:32:10.891Z,62.16
2023-05-24T20:34:38.600Z,62.08
2023-05-24T20:37:06.504Z,60.85
2023-05-24T20:39:33.892Z,61.54
2023-05-24T20:42:02.227Z,61.93
2023-05-24T20:44:29.644Z,61.19
2023-05-24T20:46:57.082Z,62.70
2023-05-24T20:49:24.779Z,63.99
2023-05-24T20:51:52.195Z,62.71
2023-05-24T20:54:19.569Z,63.62
2023-05-24T20:56:47.261Z,63.21
2023-05-24T20:59:14.651Z,61.97
2023-05-24T21:01:42.348Z,61.13
2023-05-24T21:04:10.204Z,60.44
2023-05-24T21:06:37.709Z,60.26
2023-05-24T21:09:05.140Z,60.92
2023-05-24T21:11:32.812Z,62.70
2023-05-24T21:14:00.179Z,61.69
2023-05-24T21:16:28.231Z,60.61
2023-05-24T21:18:55.892Z,65.01
2023-05-24T21:21:23.373Z,64.01
2023-05-24T21:23:50.758Z,64.10
2023-05-24T21:26:18.454Z,63.60
2023-05-24T21:28:46.321Z,62.16
2023-05-24T21:31:13.858Z,63.13
2023-05-24T21:33:43.388Z,62.22
2023-05-24T21:36:10.922Z,63.38
2023-05-24T21:38:38.330Z,63.97
2023-05-24T21:41:06.175Z,63.26
2023-05-24T21:43:33.624Z,63.94
2023-05-24T21:46:01.028Z,63.15
2023-05-24T21:48:28.720Z,63.73
2023-05-24T21:50:56.254Z,64.48
2023-05-24T21:53:23.647Z,64.62
2023-05-24T21:55:51.277Z,66.43
2023-05-24T21:58:18.706Z,66.22
2023-05-24T22:00:46.392Z,65.75
2023-05-24T22:03:14.115Z,67.52
2023-05-24T22:05:41.672Z,64.50
2023-05-24T22:08:09.066Z,64.68
2023-05-24T22:10:36.754Z,64.37
2023-05-24T22:13:04.126Z,68.37
2023-05-24T22:15:31.595Z,65.85
2023-05-24T22:18:01.410Z,66.01
2023-05-24T22:20:30.545Z,65.89
2023-05-24T22:22:58.880Z,64.35
2023-05-24T22:25:26.759Z,65.57
2023-05-24T22:27:55.770Z,65.25
2023-05-24T22:30:23.812Z,64.94
2023-05-24T22:32:51.531Z,63.92
2023-05-24T22:35:19.247Z,64.66
2023-05-24T22:37:46.644Z,66.69
2023-05-24T22:40:14.397Z,67.83
2023-05-24T22:42:41.820Z,67.34
2023-05-24T22:45:09.757Z,67.75
2023-05-24T22:47:40.025Z,67.44
2023-05-24T22:50:08.184Z,69.33
2023-05-24T22:52:35.756Z,67.31
2023-05-24T22:55:03.543Z,67.64
2023-05-24T22:57:31.950Z,66.42
2023-05-24T22:59:59.346Z,67.45
2023-05-24T23:02:29.249Z,68.38
2023-05-24T23:04:56.931Z,66.45
2023-05-24T23:07:25.175Z,67.13
2023-05-24T23:09:53.436Z,67.45
2023-05-24T23:12:21.015Z,65.84
2023-05-24T23:14:48.435Z,65.56
2023-05-24T23:17:20.099Z,65.48
2023-05-24T23:19:50.166Z,65.92
2023-05-24T23:22:23.491Z,66.55
2023-05-24T23:24:50.936Z,66.25
2023-05-24T23:27:18.653Z,68.14
2023-05-24T23:29:46.246Z,66.52
2023-05-24T23:32:13.727Z,65.65
2023-05-24T23:34:41.435Z,65.02
2023-05-24T23:37:08.877Z,65.25
2023-05-24T23:39:36.329Z,63.68
2023-05-24T23:42:04.402Z,65.35
2023-05-24T23:44:31.800Z,64.50
2023-05-24T23:46:59.258Z,65.49
2023-05-24T23:49:27.024Z,65.42
2023-05-24T23:51:54.453Z,65.52
2023-05-24T23:54:22.174Z,63.73
2023-05-24T23:56:50.149Z,64.42
2023-05-24T23:59:17.580Z,64.02
